Time;durP1;ratioP1;P1;durP2;ratioP2;P2;SDS_P1;SDS_P2;PMS_P1;PMS_P2;Temp;Humidity;BMP_temperature;BMP_pressure;BME280_temperature;BME280_humidity;BME280_pressure;Samples;Min_cycle;Max_cycle;Signal;HPM_P1;HPM_P2
2021/06/13 00:01:37;;;;;;;0.57;0.20;;;17.70;99.90;;;;;;5056753;28;20181;-83
2021/06/13 00:04:03;;;;;;;0.30;0.30;;;17.70;99.90;;;;;;5059413;28;20185;-83
2021/06/13 00:06:28;;;;;;;0.20;0.20;;;17.70;99.90;;;;;;5049273;28;20193;-83
2021/06/13 00:08:57;;;;;;;0.20;0.20;;;17.70;99.90;;;;;;5050927;28;20719;-83
2021/06/13 00:11:23;;;;;;;0.50;0.50;;;17.70;99.90;;;;;;5066222;28;20185;-84
2021/06/13 00:13:50;;;;;;;0.60;0.20;;;17.70;99.90;;;;;;5060260;28;20239;-84
2021/06/13 00:16:17;;;;;;;0.30;0.23;;;17.60;99.90;;;;;;5050425;28;20251;-83
2021/06/13 00:18:43;;;;;;;0.20;0.20;;;17.50;99.90;;;;;;5050427;28;20206;-84
2021/06/13 00:21:09;;;;;;;0.20;0.20;;;17.50;99.90;;;;;;5049500;28;20185;-83
2021/06/13 00:23:34;;;;;;;0.17;0.17;;;17.50;99.90;;;;;;5048387;28;20671;-83
2021/06/13 00:26:00;;;;;;;0.33;0.33;;;17.50;99.90;;;;;;5050892;28;20232;-83
2021/06/13 00:28:26;;;;;;;0.40;0.40;;;17.40;99.90;;;;;;5050219;28;20201;-83
2021/06/13 00:30:51;;;;;;;0.50;0.30;;;17.40;99.90;;;;;;5049722;28;20201;-83
2021/06/13 00:33:17;;;;;;;0.93;0.93;;;17.40;99.90;;;;;;5042683;28;20184;-83
2021/06/13 00:35:43;;;;;;;0.33;0.33;;;17.40;99.90;;;;;;5049783;28;20239;-83
2021/06/13 00:38:08;;;;;;;0.27;0.27;;;17.30;99.90;;;;;;5044902;28;20224;-83
2021/06/13 00:40:35;;;;;;;0.20;0.20;;;17.20;99.90;;;;;;5051223;28;20193;-83
2021/06/13 00:43:02;;;;;;;0.57;0.10;;;17.20;99.90;;;;;;5050262;28;20186;-83
2021/06/13 00:45:28;;;;;;;0.23;0.23;;;17.10;99.90;;;;;;5065850;28;20216;-83
2021/06/13 00:47:54;;;;;;;0.30;0.30;;;16.80;99.90;;;;;;5051291;28;20272;-84
2021/06/13 00:50:47;;;;;;;0.30;0.30;;;16.70;99.90;;;;;;5050715;28;20233;-84
2021/06/13 00:53:13;;;;;;;0.47;0.47;;;16.70;99.90;;;;;;5050743;28;20243;-83
2021/06/13 00:55:40;;;;;;;0.17;0.17;;;16.70;99.90;;;;;;5048875;28;20661;-83
2021/06/13 00:58:07;;;;;;;0.33;0.33;;;16.70;99.90;;;;;;5050142;28;20211;-83
2021/06/13 01:00:34;;;;;;;0.10;0.10;;;16.80;99.90;;;;;;5048365;28;20239;-83
2021/06/13 01:03:00;;;;;;;0.33;0.33;;;16.80;99.90;;;;;;5049264;28;20322;-83
2021/06/13 01:05:26;;;;;;;0.27;0.20;;;16.90;99.90;;;;;;5049621;28;20188;-83
2021/06/13 01:08:02;;;;;;;0.23;0.23;;;16.90;99.90;;;;;;5048232;28;20561;-83
2021/06/13 01:10:45;;;;;;;0.30;0.30;;;16.60;99.90;;;;;;5050190;28;20200;-83
2021/06/13 01:13:21;;;;;;;0.30;0.30;;;16.70;99.90;;;;;;5037633;28;20675;-82
2021/06/13 01:15:56;;;;;;;0.40;0.27;;;16.70;99.90;;;;;;5053006;28;20246;-82
2021/06/13 01:18:43;;;;;;;0.50;0.50;;;16.70;99.90;;;;;;5052596;28;20208;-83
2021/06/13 01:21:18;;;;;;;0.10;0.10;;;16.70;99.90;;;;;;5053013;28;20190;-83
2021/06/13 01:24:17;;;;;;;0.40;0.30;;;16.70;99.90;;;;;;5052021;28;20185;-83
2021/06/13 01:27:07;;;;;;;1.30;0.50;;;16.60;99.90;;;;;;5045669;28;20198;-82
2021/06/13 01:29:34;;;;;;;0.50;0.50;;;16.60;99.90;;;;;;5052608;28;20190;-82
2021/06/13 01:32:15;;;;;;;0.57;0.10;;;16.60;99.90;;;;;;5052795;28;20181;-83
2021/06/13 01:34:50;;;;;;;0.57;0.30;;;16.50;99.90;;;;;;5052419;28;20172;-83
2021/06/13 01:37:18;;;;;;;0.20;0.20;;;16.50;99.90;;;;;;5049730;28;20188;-83
2021/06/13 01:39:46;;;;;;;0.10;0.10;;;16.50;99.90;;;;;;5041437;28;20657;-81
2021/06/13 01:42:13;;;;;;;0.10;0.10;;;16.30;99.90;;;;;;5052395;28;20657;-83
2021/06/13 01:44:41;;;;;;;0.50;0.40;;;16.30;99.90;;;;;;5069757;28;20211;-83
2021/06/13 01:47:09;;;;;;;0.30;0.30;;;16.30;99.90;;;;;;5050921;28;20201;-83
2021/06/13 01:49:37;;;;;;;0.40;0.30;;;16.20;99.90;;;;;;5070396;28;20188;-83
2021/06/13 01:52:03;;;;;;;0.40;0.40;;;16.20;99.90;;;;;;5052547;28;20182;-84
2021/06/13 01:54:32;;;;;;;0.10;0.10;;;16.20;99.90;;;;;;5052949;28;20185;-83
2021/06/13 01:56:58;;;;;;;0.20;0.20;;;16.20;99.90;;;;;;5051803;28;20327;-83
2021/06/13 01:59:26;;;;;;;0.20;0.20;;;16.20;99.90;;;;;;5053141;28;20677;-82
2021/06/13 02:01:55;;;;;;;0.60;0.60;;;16.20;99.90;;;;;;5067742;28;20188;-83
2021/06/13 02:04:23;;;;;;;1.70;0.40;;;16.00;99.90;;;;;;5053407;28;20580;-83
2021/06/13 02:06:53;;;;;;;1.93;0.30;;;15.80;99.90;;;;;;5067787;28;20579;-83
2021/06/13 02:09:22;;;;;;;0.17;0.17;;;15.60;99.90;;;;;;5052990;28;20232;-83
2021/06/13 02:11:48;;;;;;;0.30;0.30;;;15.50;99.90;;;;;;5068773;28;20676;-81
2021/06/13 02:14:18;;;;;;;0.10;0.10;;;15.50;99.90;;;;;;5068162;28;20189;-82
2021/06/13 02:16:45;;;;;;;0.23;0.23;;;15.60;99.90;;;;;;5051534;28;20737;-83
2021/06/13 02:19:13;;;;;;;0.60;0.50;;;15.80;99.90;;;;;;5053435;28;20230;-83
2021/06/13 02:21:42;;;;;;;0.40;0.30;;;15.80;99.90;;;;;;5052147;28;20185;-83
2021/06/13 02:24:10;;;;;;;0.73;0.37;;;15.50;99.90;;;;;;5050353;28;20727;-84
2021/06/13 02:26:36;;;;;;;0.40;0.40;;;15.30;99.90;;;;;;5051284;28;20213;-81
2021/06/13 02:29:03;;;;;;;0.20;0.20;;;15.30;99.90;;;;;;5051874;28;20207;-83
2021/06/13 02:31:32;;;;;;;1.83;0.77;;;15.20;99.90;;;;;;5053288;28;20693;-83
2021/06/13 02:34:00;;;;;;;0.30;0.30;;;15.20;99.90;;;;;;5050830;28;20185;-83
2021/06/13 02:36:28;;;;;;;2.00;1.43;;;15.20;99.90;;;;;;5052037;28;20185;-84
2021/06/13 02:38:55;;;;;;;0.20;0.20;;;15.10;99.90;;;;;;5049779;28;20703;-83
2021/06/13 02:41:21;;;;;;;0.20;0.20;;;15.00;99.90;;;;;;5047188;28;20188;-83
2021/06/13 02:43:47;;;;;;;0.30;0.30;;;15.10;99.90;;;;;;5051506;28;20547;-83
2021/06/13 02:46:13;;;;;;;0.20;0.20;;;15.30;99.90;;;;;;5049420;28;20211;-83
2021/06/13 02:48:39;;;;;;;0.87;0.30;;;15.30;99.90;;;;;;5054893;28;20195;-81
2021/06/13 02:51:04;;;;;;;1.07;0.70;;;15.50;99.90;;;;;;5049005;28;20204;-83
2021/06/13 02:53:44;;;;;;;0.70;0.20;;;15.20;99.90;;;;;;5068001;28;20190;-83
2021/06/13 02:56:28;;;;;;;0.10;0.10;;;15.10;99.90;;;;;;5051590;28;20192;-83
2021/06/13 02:59:22;;;;;;;0.20;0.20;;;15.20;99.90;;;;;;5051189;28;20617;-83
2021/06/13 03:01:50;;;;;;;0.20;0.20;;;15.20;99.90;;;;;;5052004;28;20191;-83
2021/06/13 03:04:17;;;;;;;0.20;0.20;;;15.20;99.90;;;;;;5051039;28;20192;-83
2021/06/13 03:06:46;;;;;;;0.60;0.60;;;15.20;99.90;;;;;;5038812;28;20205;-84
2021/06/13 03:09:11;;;;;;;0.53;0.50;;;15.00;99.90;;;;;;5052079;28;20206;-82
2021/06/13 03:11:38;;;;;;;2.20;0.77;;;14.90;99.90;;;;;;5050755;28;20186;-84
2021/06/13 03:14:06;;;;;;;0.87;0.40;;;15.00;99.90;;;;;;5051697;28;20182;-83
2021/06/13 03:16:33;;;;;;;0.23;0.20;;;15.10;99.90;;;;;;5051692;28;20177;-83
2021/06/13 03:18:58;;;;;;;0.20;0.20;;;15.10;99.90;;;;;;5050771;28;20237;-83
2021/06/13 03:21:25;;;;;;;0.50;0.50;;;15.20;99.90;;;;;;5052654;28;20230;-83
2021/06/13 03:23:52;;;;;;;0.40;0.40;;;15.00;99.90;;;;;;5051792;28;20188;-83
2021/06/13 03:26:18;;;;;;;0.13;0.13;;;15.10;99.90;;;;;;5052339;28;20730;-83
2021/06/13 03:28:46;;;;;;;0.60;0.47;;;15.20;99.90;;;;;;5049517;28;20205;-83
2021/06/13 03:31:13;;;;;;;0.30;0.30;;;15.30;99.90;;;;;;5049305;28;20252;-85
2021/06/13 03:33:42;;;;;;;0.70;0.70;;;15.20;99.90;;;;;;5051308;28;20192;-84
2021/06/13 03:36:08;;;;;;;0.53;0.33;;;15.30;99.90;;;;;;5050999;28;20212;-84
2021/06/13 03:38:35;;;;;;;0.37;0.37;;;15.60;99.90;;;;;;5035946;28;20214;-82
2021/06/13 03:41:02;;;;;;;0.33;0.33;;;16.50;99.90;;;;;;5059959;28;20185;-84
2021/06/13 03:43:28;;;;;;;0.20;0.20;;;17.40;99.90;;;;;;5050242;28;20200;-84
2021/06/13 03:45:53;;;;;;;1.70;0.93;;;18.20;99.90;;;;;;5048585;28;20700;-85
2021/06/13 03:48:21;;;;;;;0.30;0.30;;;18.90;99.90;;;;;;5050673;28;20214;-84
2021/06/13 03:50:48;;;;;;;0.27;0.27;;;19.80;99.90;;;;;;5047781;28;20269;-84
2021/06/13 03:53:14;;;;;;;0.13;0.13;;;20.40;99.90;;;;;;5050622;28;20235;-84
2021/06/13 03:55:41;;;;;;;0.67;0.67;;;21.10;99.90;;;;;;5053981;28;20214;-84
2021/06/13 03:58:08;;;;;;;0.40;0.40;;;21.40;99.90;;;;;;5070426;28;20621;-83
2021/06/13 04:00:37;;;;;;;0.23;0.23;;;21.90;99.90;;;;;;5072003;28;20200;-84
2021/06/13 04:03:04;;;;;;;0.17;0.17;;;22.10;99.90;;;;;;5055390;28;20197;-83
2021/06/13 04:05:30;;;;;;;0.27;0.27;;;22.50;99.90;;;;;;5050953;28;20258;-85
2021/06/13 04:07:57;;;;;;;3.30;0.40;;;22.20;99.90;;;;;;5048810;28;20270;-84
2021/06/13 04:10:23;;;;;;;0.23;0.23;;;21.30;99.90;;;;;;5048614;28;20179;-83
2021/06/13 04:12:51;;;;;;;0.40;0.40;;;21.50;99.90;;;;;;5049938;28;20185;-84
2021/06/13 04:15:17;;;;;;;0.30;0.30;;;22.40;99.90;;;;;;5052984;28;20186;-84
2021/06/13 04:17:43;;;;;;;0.20;0.20;;;23.20;99.90;;;;;;5051876;28;20208;-84
2021/06/13 04:20:11;;;;;;;0.50;0.50;;;22.70;99.90;;;;;;5060225;28;20185;-83
2021/06/13 04:22:38;;;;;;;0.30;0.30;;;21.70;99.90;;;;;;5049509;28;20663;-81
2021/06/13 04:25:07;;;;;;;0.40;0.40;;;21.10;99.90;;;;;;5048402;28;20185;-84
2021/06/13 04:27:35;;;;;;;0.30;0.30;;;20.30;99.90;;;;;;5046132;28;20726;-85
2021/06/13 04:30:01;;;;;;;0.57;0.57;;;19.30;99.90;;;;;;5044778;28;20202;-84
2021/06/13 04:32:27;;;;;;;0.30;0.30;;;19.10;99.90;;;;;;5046821;28;20182;-83
2021/06/13 04:34:53;;;;;;;0.27;0.27;;;18.60;99.90;;;;;;5057285;28;20181;-84
2021/06/13 04:37:18;;;;;;;0.40;0.40;;;18.30;99.90;;;;;;5051185;28;20189;-84
2021/06/13 04:39:44;;;;;;;0.20;0.20;;;18.60;99.90;;;;;;5046897;28;20191;-82
2021/06/13 04:42:10;;;;;;;0.10;0.10;;;18.70;99.90;;;;;;5053230;28;20190;-85
2021/06/13 04:44:37;;;;;;;0.13;0.13;;;18.70;99.90;;;;;;5048896;28;20192;-84
2021/06/13 04:47:05;;;;;;;5.37;0.60;;;18.50;99.90;;;;;;5052761;28;20720;-85
2021/06/13 04:49:31;;;;;;;0.10;0.10;;;18.30;99.90;;;;;;5063309;28;20201;-85
2021/06/13 04:51:58;;;;;;;0.30;0.30;;;18.20;99.90;;;;;;5054332;28;20185;-84
2021/06/13 04:55:05;;;;;;;0.43;0.43;;;18.20;99.90;;;;;;5053466;28;20178;-84
2021/06/13 04:57:41;;;;;;;0.40;0.40;;;17.80;99.90;;;;;;5041926;28;20214;-85
2021/06/13 05:00:07;;;;;;;2.63;2.20;;;17.30;99.90;;;;;;5053474;28;20285;-83
2021/06/13 05:02:33;;;;;;;0.23;0.23;;;17.20;99.90;;;;;;5070448;28;20191;-84
2021/06/13 05:04:59;;;;;;;0.20;0.20;;;17.00;99.90;;;;;;5054497;28;20192;-84
2021/06/13 05:07:25;;;;;;;1.67;0.13;;;16.80;99.90;;;;;;5053522;28;20209;-83
2021/06/13 05:09:51;;;;;;;1.23;0.77;;;16.60;99.90;;;;;;5052602;28;20243;-83
2021/06/13 05:12:17;;;;;;;0.50;0.40;;;16.20;99.90;;;;;;5058202;28;20173;-84
2021/06/13 05:14:42;;;;;;;0.27;0.27;;;16.30;99.90;;;;;;5055349;28;20209;-83
2021/06/13 05:17:08;;;;;;;0.20;0.20;;;16.20;99.90;;;;;;5055727;28;20661;-83
2021/06/13 05:19:34;;;;;;;0.40;0.40;;;15.80;99.90;;;;;;5054417;28;20223;-83
2021/06/13 05:22:04;;;;;;;0.27;0.27;;;15.90;99.90;;;;;;5056435;28;20691;-83
2021/06/13 05:24:31;;;;;;;1.90;0.30;;;15.80;99.90;;;;;;5042570;28;20696;-83
2021/06/13 05:26:56;;;;;;;0.20;0.20;;;16.00;99.90;;;;;;5067251;28;20209;-82
2021/06/13 05:29:22;;;;;;;1.97;0.50;;;16.20;99.90;;;;;;5057418;28;20200;-83
2021/06/13 05:31:47;;;;;;;0.50;0.40;;;16.00;99.90;;;;;;5053626;28;20192;-85
2021/06/13 05:34:13;;;;;;;0.20;0.20;;;16.20;99.90;;;;;;5053510;28;20259;-85
2021/06/13 05:36:38;;;;;;;0.33;0.33;;;16.40;99.90;;;;;;5053692;28;20197;-84
2021/06/13 05:39:04;;;;;;;0.50;0.50;;;16.20;99.90;;;;;;5052406;28;20211;-83
2021/06/13 05:41:30;;;;;;;0.20;0.20;;;16.00;99.90;;;;;;5066283;28;20201;-83
2021/06/13 05:43:57;;;;;;;0.37;0.13;;;16.00;99.90;;;;;;5052789;28;20192;-84
2021/06/13 05:46:23;;;;;;;0.23;0.20;;;16.10;99.90;;;;;;5053369;28;20200;-85
2021/06/13 05:48:49;;;;;;;1.03;0.77;;;16.10;99.90;;;;;;5053996;28;20196;-85
2021/06/13 05:51:15;;;;;;;0.10;0.10;;;15.90;99.90;;;;;;5046712;28;20196;-83
2021/06/13 05:53:41;;;;;;;0.23;0.23;;;16.00;99.90;;;;;;5052094;28;20194;-85
2021/06/13 05:56:07;;;;;;;0.30;0.30;;;16.10;99.90;;;;;;5050482;28;20721;-85
2021/06/13 05:58:32;;;;;;;2.53;0.50;;;16.30;99.90;;;;;;5050933;28;20205;-85
2021/06/13 06:00:58;;;;;;;0.33;0.33;;;16.70;99.90;;;;;;5049109;28;20281;-85
2021/06/13 06:03:23;;;;;;;0.23;0.23;;;16.60;99.90;;;;;;5052347;28;20234;-85
2021/06/13 06:05:51;;;;;;;1.73;0.40;;;16.50;99.90;;;;;;5051195;28;20211;-84
2021/06/13 06:08:18;;;;;;;1.10;0.30;;;16.40;99.90;;;;;;5044973;28;20206;-84
2021/06/13 06:10:44;;;;;;;0.30;0.30;;;16.30;99.90;;;;;;5050264;28;20526;-85
2021/06/13 06:13:10;;;;;;;0.40;0.30;;;16.60;99.90;;;;;;5051355;28;20181;-84
2021/06/13 06:15:37;;;;;;;0.20;0.20;;;16.60;99.90;;;;;;5049243;28;20196;-85
2021/06/13 06:18:05;;;;;;;0.60;0.60;;;16.60;99.90;;;;;;5047349;28;21260;-84
2021/06/13 06:20:32;;;;;;;0.63;0.47;;;16.50;99.90;;;;;;5051901;28;20222;-85
2021/06/13 06:22:58;;;;;;;0.10;0.10;;;16.60;99.90;;;;;;5049688;28;20231;-85
2021/06/13 06:25:24;;;;;;;0.40;0.40;;;17.00;99.90;;;;;;5051395;28;20188;-84
2021/06/13 06:27:50;;;;;;;0.43;0.43;;;17.00;99.90;;;;;;5049708;28;20938;-84
2021/06/13 06:30:17;;;;;;;0.27;0.27;;;16.70;99.90;;;;;;5050092;28;20194;-84
2021/06/13 06:32:43;;;;;;;0.80;0.23;;;16.90;99.90;;;;;;5050215;28;20185;-84
2021/06/13 06:35:10;;;;;;;0.50;0.50;;;16.50;99.90;;;;;;5051965;28;20653;-84
2021/06/13 06:37:38;;;;;;;0.20;0.20;;;16.30;99.90;;;;;;5049221;28;20739;-84
2021/06/13 06:40:06;;;;;;;0.40;0.27;;;16.70;99.90;;;;;;5076638;28;20264;-85
2021/06/13 06:42:33;;;;;;;0.30;0.30;;;16.90;99.90;;;;;;5063485;28;20656;-82
2021/06/13 06:45:00;;;;;;;0.20;0.20;;;17.10;99.90;;;;;;5056943;28;20236;-84
2021/06/13 06:47:25;;;;;;;0.20;0.20;;;17.30;99.90;;;;;;5063511;28;20216;-85
2021/06/13 06:49:52;;;;;;;0.20;0.20;;;17.10;99.90;;;;;;5058614;28;20547;-85
2021/06/13 06:52:17;;;;;;;0.33;0.33;;;17.00;99.90;;;;;;5054756;28;20181;-85
2021/06/13 06:54:44;;;;;;;0.40;0.40;;;16.90;99.90;;;;;;5054246;28;20232;-84
2021/06/13 06:57:10;;;;;;;0.43;0.43;;;17.20;99.90;;;;;;5054129;28;20215;-85
2021/06/13 06:59:36;;;;;;;1.03;0.47;;;17.10;99.90;;;;;;5053727;28;20388;-84
2021/06/13 07:02:03;;;;;;;2.90;0.50;;;17.10;99.90;;;;;;5055031;28;20174;-84
2021/06/13 07:04:28;;;;;;;0.30;0.30;;;17.20;99.90;;;;;;5053804;28;20188;-83
2021/06/13 07:06:54;;;;;;;0.40;0.40;;;17.50;99.90;;;;;;5053626;28;20209;-84
2021/06/13 07:09:19;;;;;;;0.30;0.30;;;17.80;99.90;;;;;;5054740;28;20212;-84
2021/06/13 07:11:45;;;;;;;0.10;0.10;;;18.00;99.90;;;;;;5054761;28;20240;-84
2021/06/13 07:14:11;;;;;;;0.27;0.27;;;18.20;99.90;;;;;;5053843;28;20605;-85
2021/06/13 07:16:36;;;;;;;1.07;1.07;;;18.30;99.90;;;;;;5072653;28;20197;-84
2021/06/13 07:19:03;;;;;;;0.20;0.20;;;18.20;99.90;;;;;;5049398;28;20694;-85
2021/06/13 07:21:28;;;;;;;0.50;0.50;;;18.30;99.90;;;;;;5049766;28;20673;-84
2021/06/13 07:23:54;;;;;;;0.47;0.47;;;18.60;99.90;;;;;;5055311;28;20181;-84
2021/06/13 07:26:19;;;;;;;0.27;0.27;;;18.70;99.90;;;;;;5051754;28;20213;-85
2021/06/13 07:28:45;;;;;;;0.30;0.30;;;19.10;99.90;;;;;;5048574;28;20296;-83
2021/06/13 07:31:12;;;;;;;0.60;0.60;;;19.30;99.90;;;;;;5052089;28;20192;-85
2021/06/13 07:33:37;;;;;;;0.23;0.23;;;19.40;99.90;;;;;;5050185;28;20226;-85
2021/06/13 07:36:05;;;;;;;2.10;0.50;;;19.40;99.90;;;;;;5051411;28;20217;-84
2021/06/13 07:38:31;;;;;;;0.47;0.30;;;19.20;99.90;;;;;;5052933;28;20213;-84
2021/06/13 07:40:57;;;;;;;0.37;0.37;;;18.30;99.90;;;;;;5063361;28;20260;-85
2021/06/13 07:43:24;;;;;;;0.30;0.30;;;18.50;99.90;;;;;;5051379;28;20189;-85
2021/06/13 07:45:49;;;;;;;0.20;0.20;;;18.80;99.90;;;;;;5051684;28;20259;-84
2021/06/13 07:48:15;;;;;;;2.00;0.20;;;19.30;99.90;;;;;;5056843;28;20209;-82
2021/06/13 07:50:42;;;;;;;2.93;0.50;;;19.80;99.90;;;;;;5053295;28;20716;-84
2021/06/13 07:53:09;;;;;;;0.50;0.50;;;19.20;99.90;;;;;;5052841;28;20182;-84
2021/06/13 07:55:35;;;;;;;0.20;0.20;;;19.20;99.90;;;;;;5053604;28;20193;-85
2021/06/13 07:58:01;;;;;;;0.30;0.30;;;19.60;99.90;;;;;;5055416;28;20284;-84
2021/06/13 08:00:27;;;;;;;0.40;0.40;;;18.70;99.90;;;;;;5064169;28;20265;-85
2021/06/13 08:02:53;;;;;;;0.43;0.43;;;18.70;99.90;;;;;;5045418;28;20199;-85
2021/06/13 08:05:25;;;;;;;0.47;0.47;;;18.80;99.90;;;;;;5052706;28;20724;-86
2021/06/13 08:07:52;;;;;;;5.60;0.50;;;18.60;99.90;;;;;;5050895;28;20263;-85
2021/06/13 08:10:18;;;;;;;0.50;0.50;;;19.30;99.90;;;;;;5056580;28;20194;-85
2021/06/13 08:12:45;;;;;;;0.67;0.30;;;19.20;99.90;;;;;;5052727;28;20242;-86
2021/06/13 08:15:11;;;;;;;0.20;0.20;;;19.30;99.90;;;;;;5046856;28;20216;-84
2021/06/13 08:17:36;;;;;;;0.20;0.20;;;19.80;99.90;;;;;;5046884;28;20343;-83
2021/06/13 08:20:04;;;;;;;0.30;0.30;;;20.20;99.90;;;;;;5051577;28;20209;-85
2021/06/13 08:22:30;;;;;;;0.87;0.50;;;19.30;99.90;;;;;;5051099;28;20194;-85
2021/06/13 08:24:58;;;;;;;0.30;0.30;;;19.90;99.90;;;;;;5048731;28;20186;-84
2021/06/13 08:27:25;;;;;;;0.40;0.30;;;20.50;99.90;;;;;;5051953;28;20214;-85
2021/06/13 08:29:51;;;;;;;0.27;0.20;;;20.70;99.90;;;;;;5056876;28;20197;-85
2021/06/13 08:32:16;;;;;;;0.40;0.40;;;21.00;99.90;;;;;;5052776;28;20192;-82
2021/06/13 08:34:42;;;;;;;0.50;0.50;;;20.10;99.90;;;;;;5072017;28;20208;-85
2021/06/13 08:37:07;;;;;;;0.30;0.30;;;19.80;99.90;;;;;;5054936;28;20181;-85
2021/06/13 08:39:33;;;;;;;0.60;0.60;;;20.50;99.90;;;;;;5055560;28;20683;-85
2021/06/13 08:41:59;;;;;;;0.50;0.50;;;21.00;99.90;;;;;;5051498;28;20243;-84
2021/06/13 08:44:25;;;;;;;0.27;0.27;;;20.80;99.90;;;;;;5069041;28;20873;-85
2021/06/13 08:46:52;;;;;;;0.43;0.43;;;20.80;99.90;;;;;;5048214;28;20588;-85
2021/06/13 08:49:23;;;;;;;0.30;0.30;;;21.00;99.90;;;;;;5056800;28;20198;-84
2021/06/13 08:51:50;;;;;;;0.63;0.50;;;20.50;99.90;;;;;;5054494;28;20189;-85
2021/06/13 08:54:15;;;;;;;0.33;0.33;;;21.10;99.90;;;;;;5053978;28;20719;-86
2021/06/13 08:56:42;;;;;;;0.20;0.20;;;21.50;99.90;;;;;;5052958;28;20186;-87
2021/06/13 08:59:09;;;;;;;0.53;0.50;;;21.90;99.90;;;;;;5053263;28;20240;-84
2021/06/13 09:01:35;;;;;;;6.00;0.30;;;21.90;99.90;;;;;;5069631;28;20258;-85
2021/06/13 09:04:02;;;;;;;0.97;0.90;;;22.10;99.90;;;;;;5055622;28;20189;-85
2021/06/13 09:06:28;;;;;;;0.30;0.30;;;21.60;99.90;;;;;;5055398;28;20323;-83
2021/06/13 09:08:54;;;;;;;0.57;0.57;;;21.40;99.90;;;;;;5053420;28;20367;-81
2021/06/13 09:11:31;;;;;;;0.63;0.47;;;21.20;99.90;;;;;;5054380;28;20404;-83
2021/06/13 09:14:14;;;;;;;0.57;0.57;;;20.90;99.90;;;;;;5052758;28;20606;-81
2021/06/13 09:16:44;;;;;;;0.30;0.30;;;21.10;99.90;;;;;;5069763;28;20246;-83
2021/06/13 09:19:13;;;;;;;0.57;0.57;;;20.80;99.90;;;;;;5054392;28;20221;-82
2021/06/13 09:21:40;;;;;;;0.30;0.30;;;20.50;99.90;;;;;;5053068;28;20190;-83
2021/06/13 09:24:24;;;;;;;1.50;0.50;;;21.20;99.90;;;;;;5054139;28;20189;-83
2021/06/13 09:26:53;;;;;;;0.27;0.23;;;21.90;99.90;;;;;;5053182;28;20249;-83
2021/06/13 09:29:19;;;;;;;0.40;0.40;;;22.20;99.90;;;;;;5053637;28;20217;-82
2021/06/13 09:31:46;;;;;;;0.70;0.70;;;21.60;99.90;;;;;;5055447;28;20190;-82
2021/06/13 09:34:16;;;;;;;1.60;0.63;;;21.70;99.90;;;;;;5051769;28;20200;-82
2021/06/13 09:36:43;;;;;;;0.50;0.50;;;21.90;99.90;;;;;;5055763;28;20177;-81
2021/06/13 09:39:12;;;;;;;2.83;1.00;;;22.50;99.90;;;;;;5059284;28;20217;-82
2021/06/13 09:41:43;;;;;;;0.40;0.40;;;21.50;99.90;;;;;;5053030;28;20197;-82
2021/06/13 09:44:12;;;;;;;1.33;0.80;;;22.10;99.90;;;;;;5071152;28;20190;-82
2021/06/13 09:46:49;;;;;;;0.40;0.33;;;22.50;99.90;;;;;;5049969;28;20641;-83
2021/06/13 09:49:17;;;;;;;0.63;0.43;;;22.90;99.90;;;;;;5048192;28;20216;-83
2021/06/13 09:51:45;;;;;;;0.30;0.30;;;22.50;99.90;;;;;;5068512;28;20805;-83
2021/06/13 09:54:18;;;;;;;0.30;0.30;;;23.00;99.90;;;;;;5051557;28;20213;-82
2021/06/13 09:56:44;;;;;;;0.73;0.73;;;23.30;99.90;;;;;;5052807;28;20220;-83
2021/06/13 09:59:12;;;;;;;0.63;0.63;;;23.40;99.90;;;;;;5055603;28;20240;-83
2021/06/13 10:01:46;;;;;;;0.67;0.57;;;23.10;99.90;;;;;;5068439;28;20189;-83
2021/06/13 10:04:17;;;;;;;3.53;0.70;;;23.50;99.90;;;;;;5051272;28;20260;-83
2021/06/13 10:06:46;;;;;;;0.53;0.47;;;23.80;99.90;;;;;;5060082;28;20209;-82
2021/06/13 10:09:11;;;;;;;0.70;0.70;;;23.80;99.90;;;;;;5067661;28;20584;-83
2021/06/13 10:11:38;;;;;;;0.40;0.40;;;22.70;99.90;;;;;;5055352;28;20186;-82
2021/06/13 10:14:10;;;;;;;2.00;0.80;;;22.40;99.90;;;;;;5066570;28;20244;-83
2021/06/13 10:16:45;;;;;;;0.20;0.20;;;22.40;99.90;;;;;;5051053;28;20208;-82
2021/06/13 10:19:12;;;;;;;1.47;0.90;;;22.80;99.90;;;;;;5054444;28;20307;-82
2021/06/13 10:21:50;;;;;;;0.67;0.67;;;22.80;99.90;;;;;;5052415;28;20197;-82
2021/06/13 10:24:21;;;;;;;0.40;0.40;;;22.50;99.90;;;;;;5053442;28;20261;-82
2021/06/13 10:26:59;;;;;;;0.30;0.30;;;22.60;99.90;;;;;;5051293;28;20197;-82
2021/06/13 10:29:27;;;;;;;0.50;0.50;;;22.70;99.90;;;;;;5047978;28;20607;-83
2021/06/13 10:31:55;;;;;;;0.80;0.73;;;22.20;99.90;;;;;;5050705;28;20186;-82
2021/06/13 10:34:23;;;;;;;0.23;0.23;;;22.00;99.90;;;;;;5049104;28;20182;-83
2021/06/13 10:36:49;;;;;;;0.43;0.43;;;22.50;99.90;;;;;;5052115;28;20331;-83
2021/06/13 10:39:21;;;;;;;0.50;0.50;;;22.90;99.90;;;;;;5050453;28;20208;-84
2021/06/13 10:41:48;;;;;;;0.50;0.50;;;23.10;99.90;;;;;;5052460;28;20181;-83
2021/06/13 10:44:18;;;;;;;0.47;0.47;;;23.50;99.90;;;;;;5050418;28;20432;-83
2021/06/13 10:46:46;;;;;;;0.67;0.67;;;23.00;99.90;;;;;;5047967;28;20363;-83
2021/06/13 10:49:29;;;;;;;0.73;0.73;;;23.00;99.90;;;;;;5049909;28;20934;-83
2021/06/13 10:52:04;;;;;;;0.33;0.33;;;21.80;99.90;;;;;;5050015;28;20675;-83
2021/06/13 10:54:36;;;;;;;0.30;0.30;;;21.40;99.90;;;;;;5045998;28;20231;-83
2021/06/13 10:57:08;;;;;;;0.40;0.40;;;21.10;99.90;;;;;;5047436;28;20190;-82
2021/06/13 10:59:39;;;;;;;0.80;0.80;;;21.30;99.90;;;;;;5044246;28;20210;-83
2021/06/13 11:02:22;;;;;;;0.60;0.60;;;21.60;99.90;;;;;;5048705;28;20185;-84
2021/06/13 11:04:57;;;;;;;0.40;0.40;;;22.40;99.90;;;;;;5048172;28;20181;-83
2021/06/13 11:10:07;;;;;;;0.30;0.30;;;23.60;99.90;;;;;;5049124;28;20182;-83
2021/06/13 11:13:00;;;;;;;2.23;0.40;;;23.90;99.90;;;;;;5065958;28;20178;-83
2021/06/13 11:15:26;;;;;;;0.50;0.40;;;24.20;99.90;;;;;;5046624;28;20673;-82
2021/06/13 11:18:00;;;;;;;0.30;0.30;;;24.30;99.90;;;;;;5049047;28;20213;-80
2021/06/13 11:20:34;;;;;;;0.60;0.60;;;24.40;99.90;;;;;;5056825;28;20242;-82
2021/06/13 11:23:02;;;;;;;1.60;0.60;;;24.60;99.90;;;;;;5047728;28;20185;-82
2021/06/13 11:25:30;;;;;;;1.30;0.70;;;24.60;99.90;;;;;;5049823;28;20561;-82
2021/06/13 11:28:24;;;;;;;0.50;0.50;;;23.10;99.90;;;;;;5056820;28;20220;-82
2021/06/13 11:31:08;;;;;;;0.37;0.37;;;23.20;99.90;;;;;;5049606;28;20621;-82
2021/06/13 11:33:43;;;;;;;0.30;0.30;;;23.90;99.90;;;;;;5051686;28;20206;-81
2021/06/13 11:36:17;;;;;;;0.93;0.50;;;24.40;99.90;;;;;;5054215;28;20635;-82
2021/06/13 11:38:46;;;;;;;0.40;0.40;;;24.80;99.90;;;;;;5052148;28;20204;-82
2021/06/13 11:41:27;;;;;;;0.30;0.30;;;24.80;99.90;;;;;;5050977;28;20181;-83
2021/06/13 11:43:53;;;;;;;2.33;0.63;;;24.20;99.90;;;;;;5040234;28;20557;-82
2021/06/13 11:46:38;;;;;;;0.57;0.57;;;23.70;99.90;;;;;;5050273;28;20205;-80
2021/06/13 11:49:14;;;;;;;0.60;0.60;;;24.00;99.90;;;;;;5046150;28;20255;-82
2021/06/13 11:51:47;;;;;;;0.70;0.70;;;24.30;99.90;;;;;;5050712;28;20223;-81
2021/06/13 11:54:31;;;;;;;0.50;0.50;;;24.60;99.90;;;;;;5045677;28;20632;-81
2021/06/13 11:56:58;;;;;;;0.40;0.40;;;25.10;99.90;;;;;;5065586;28;20189;-82
2021/06/13 11:59:25;;;;;;;0.30;0.30;;;25.20;99.90;;;;;;5048443;28;20207;-82
2021/06/13 12:01:56;;;;;;;0.13;0.13;;;25.10;99.90;;;;;;5062810;28;20186;-82
2021/06/13 12:04:23;;;;;;;0.27;0.27;;;25.50;99.90;;;;;;5049690;28;20189;-82
2021/06/13 12:06:50;;;;;;;0.50;0.50;;;25.30;99.90;;;;;;5048871;28;20220;-83
2021/06/13 12:09:18;;;;;;;0.47;0.47;;;24.50;99.90;;;;;;5051961;28;20212;-82
2021/06/13 12:11:56;;;;;;;1.33;0.47;;;24.90;99.90;;;;;;5051407;28;20185;-81
2021/06/13 12:14:39;;;;;;;1.17;1.07;;;25.30;99.90;;;;;;5050392;28;20177;-80
2021/06/13 12:17:17;;;;;;;0.43;0.43;;;25.10;99.90;;;;;;5051102;28;20268;-82
2021/06/13 12:19:57;;;;;;;0.53;0.53;;;24.50;99.90;;;;;;5051676;28;20267;-82
2021/06/13 12:27:31;;;;;;;1.07;0.47;;;24.90;99.90;;;;;;5052204;28;20560;-81
2021/06/13 12:30:20;;;;;;;0.37;0.37;;;24.60;99.90;;;;;;5051279;28;20272;-82
2021/06/13 12:33:02;;;;;;;0.33;0.33;;;24.90;99.90;;;;;;5036205;28;20189;-82
2021/06/13 12:35:38;;;;;;;0.83;0.80;;;24.30;99.90;;;;;;5049382;28;20266;-81
2021/06/13 12:38:08;;;;;;;0.63;0.50;;;24.50;99.90;;;;;;5057830;28;20661;-82
2021/06/13 12:40:45;;;;;;;0.60;0.60;;;24.20;99.90;;;;;;5047769;28;20200;-82
2021/06/13 12:43:12;;;;;;;0.40;0.40;;;24.00;99.90;;;;;;5054007;28;20196;-81
2021/06/13 12:45:39;;;;;;;0.37;0.37;;;24.10;99.90;;;;;;5054176;28;20244;-83
2021/06/13 12:48:08;;;;;;;0.30;0.30;;;24.60;99.90;;;;;;5065130;28;20213;-81
2021/06/13 12:50:39;;;;;;;0.40;0.30;;;24.80;99.90;;;;;;5054866;28;20310;-81
2021/06/13 12:53:06;;;;;;;1.23;0.50;;;24.60;99.90;;;;;;5044800;28;20185;-80
2021/06/13 12:55:39;;;;;;;0.30;0.30;;;24.20;99.90;;;;;;5050412;28;20201;-82
2021/06/13 12:58:13;;;;;;;0.40;0.30;;;24.30;99.90;;;;;;5051328;28;20288;-82
2021/06/13 13:00:40;;;;;;;0.43;0.40;;;23.90;99.90;;;;;;5056697;28;20203;-83
2021/06/13 13:03:11;;;;;;;0.30;0.30;;;24.00;99.90;;;;;;5054935;28;20186;-82
2021/06/13 13:05:38;;;;;;;0.40;0.40;;;24.00;99.90;;;;;;5056911;28;20196;-82